sensor_id;sensor_type;location;lat;lon;timestamp;pressure;altitude;pressure_sealevel;temperature;humidity
52535;BME280;38443;53.164;5.802;2023-04-03T00:01:44;103411.72;;;0.51;100.00
52535;BME280;38443;53.164;5.802;2023-04-03T00:04:09;103414.22;;;0.48;100.00
52535;BME280;38443;53.164;5.802;2023-04-03T00:06:35;103427.13;;;0.44;100.00
52535;BME280;38443;53.164;5.802;2023-04-03T00:09:00;103416.34;;;0.39;100.00
52535;BME280;38443;53.164;5.802;2023-04-03T00:11:25;103430.97;;;0.34;100.00
52535;BME280;38443;53.164;5.802;2023-04-03T00:13:51;103417.47;;;0.28;100.00
52535;BME280;38443;53.164;5.802;2023-04-03T00:16:16;103425.06;;;0.22;100.00
52535;BME280;38443;53.164;5.802;2023-04-03T00:18:42;103425.69;;;0.17;100.00
52535;BME280;38443;53.164;5.802;2023-04-03T00:21:07;103420.19;;;0.13;100.00
52535;BME280;38443;53.164;5.802;2023-04-03T00:23:33;103427.00;;;0.09;100.00
52535;BME280;38443;53.164;5.802;2023-04-03T00:25:59;103430.38;;;0.07;100.00
52535;BME280;38443;53.164;5.802;2023-04-03T00:28:24;103438.09;;;0.04;100.00
52535;BME280;38443;53.164;5.802;2023-04-03T00:30:51;103438.03;;;0.02;100.00
52535;BME280;38443;53.164;5.802;2023-04-03T00:33:17;103438.94;;;0.03;100.00
52535;BME280;38443;53.164;5.802;2023-04-03T00:35:42;103436.31;;;0.03;100.00
52535;BME280;38443;53.164;5.802;2023-04-03T00:38:08;103439.84;;;0.03;100.00
52535;BME280;38443;53.164;5.802;2023-04-03T00:40:34;103434.47;;;0.02;100.00
52535;BME280;38443;53.164;5.802;2023-04-03T00:43:00;103432.59;;;-0.01;100.00
52535;BME280;38443;53.164;5.802;2023-04-03T00:45:33;103439.59;;;-0.02;100.00
52535;BME280;38443;53.164;5.802;2023-04-03T00:47:59;103443.94;;;-0.02;100.00
52535;BME280;38443;53.164;5.802;2023-04-03T00:50:27;103435.88;;;-0.05;100.00
52535;BME280;38443;53.164;5.802;2023-04-03T00:52:53;103450.78;;;-0.06;100.00
52535;BME280;38443;53.164;5.802;2023-04-03T00:55:19;103451.66;;;-0.05;100.00
52535;BME280;38443;53.164;5.802;2023-04-03T00:57:45;103450.69;;;-0.07;100.00
52535;BME280;38443;53.164;5.802;2023-04-03T01:00:14;103456.75;;;-0.08;100.00
52535;BME280;38443;53.164;5.802;2023-04-03T01:02:41;103455.84;;;-0.09;100.00
52535;BME280;38443;53.164;5.802;2023-04-03T01:05:06;103451.41;;;-0.10;100.00
52535;BME280;38443;53.164;5.802;2023-04-03T01:07:32;103454.94;;;-0.09;100.00
52535;BME280;38443;53.164;5.802;2023-04-03T01:10:05;103456.69;;;-0.10;100.00
52535;BME280;38443;53.164;5.802;2023-04-03T01:12:37;103459.31;;;-0.10;100.00
52535;BME280;38443;53.164;5.802;2023-04-03T01:15:20;103455.75;;;-0.10;100.00
52535;BME280;38443;53.164;5.802;2023-04-03T01:17:54;103451.31;;;-0.11;100.00
52535;BME280;38443;53.164;5.802;2023-04-03T01:25:37;103449.34;;;-0.15;100.00
52535;BME280;38443;53.164;5.802;2023-04-03T01:28:04;103454.41;;;-0.18;100.00
52535;BME280;38443;53.164;5.802;2023-04-03T01:30:35;103451.53;;;-0.23;100.00
52535;BME280;38443;53.164;5.802;2023-04-03T01:33:01;103449.69;;;-0.24;100.00
52535;BME280;38443;53.164;5.802;2023-04-03T01:35:27;103451.19;;;-0.29;100.00
52535;BME280;38443;53.164;5.802;2023-04-03T01:37:52;103455.34;;;-0.33;100.00
52535;BME280;38443;53.164;5.802;2023-04-03T01:40:17;103458.63;;;-0.37;100.00
52535;BME280;38443;53.164;5.802;2023-04-03T01:42:43;103453.81;;;-0.44;100.00
52535;BME280;38443;53.164;5.802;2023-04-03T01:45:09;103451.91;;;-0.47;100.00
52535;BME280;38443;53.164;5.802;2023-04-03T01:47:34;103448.84;;;-0.54;100.00
52535;BME280;38443;53.164;5.802;2023-04-03T01:49:59;103459.28;;;-0.56;100.00
52535;BME280;38443;53.164;5.802;2023-04-03T01:52:24;103455.38;;;-0.63;100.00
52535;BME280;38443;53.164;5.802;2023-04-03T01:54:50;103458.84;;;-0.64;100.00
52535;BME280;38443;53.164;5.802;2023-04-03T01:57:15;103455.00;;;-0.69;100.00
52535;BME280;38443;53.164;5.802;2023-04-03T01:59:41;103466.44;;;-0.68;100.00
52535;BME280;38443;53.164;5.802;2023-04-03T02:02:06;103458.38;;;-0.71;100.00
52535;BME280;38443;53.164;5.802;2023-04-03T02:04:31;103462.81;;;-0.70;100.00
52535;BME280;38443;53.164;5.802;2023-04-03T02:06:56;103464.38;;;-0.74;100.00
52535;BME280;38443;53.164;5.802;2023-04-03T02:09:22;103469.53;;;-0.75;100.00
52535;BME280;38443;53.164;5.802;2023-04-03T02:11:47;103475.53;;;-0.78;100.00
52535;BME280;38443;53.164;5.802;2023-04-03T02:14:12;103465.66;;;-0.82;100.00
52535;BME280;38443;53.164;5.802;2023-04-03T02:16:37;103468.28;;;-0.82;100.00
52535;BME280;38443;53.164;5.802;2023-04-03T02:19:03;103480.50;;;-0.83;100.00
52535;BME280;38443;53.164;5.802;2023-04-03T02:21:28;103475.16;;;-0.84;100.00
52535;BME280;38443;53.164;5.802;2023-04-03T02:23:53;103475.84;;;-0.87;100.00
52535;BME280;38443;53.164;5.802;2023-04-03T02:26:19;103473.97;;;-0.89;100.00
52535;BME280;38443;53.164;5.802;2023-04-03T02:28:44;103475.59;;;-0.91;100.00
52535;BME280;38443;53.164;5.802;2023-04-03T02:31:10;103482.59;;;-0.92;100.00
52535;BME280;38443;53.164;5.802;2023-04-03T02:33:35;103478.84;;;-0.95;100.00
52535;BME280;38443;53.164;5.802;2023-04-03T02:36:03;103478.75;;;-0.97;100.00
52535;BME280;38443;53.164;5.802;2023-04-03T02:38:28;103482.22;;;-0.98;100.00
52535;BME280;38443;53.164;5.802;2023-04-03T02:40:59;103488.16;;;-1.01;100.00
52535;BME280;38443;53.164;5.802;2023-04-03T02:43:24;103493.41;;;-1.01;100.00
52535;BME280;38443;53.164;5.802;2023-04-03T02:45:49;103496.88;;;-1.02;100.00
52535;BME280;38443;53.164;5.802;2023-04-03T02:48:15;103489.78;;;-1.03;100.00
52535;BME280;38443;53.164;5.802;2023-04-03T02:50:41;103485.47;;;-1.02;100.00
52535;BME280;38443;53.164;5.802;2023-04-03T02:53:07;103490.53;;;-1.05;100.00
52535;BME280;38443;53.164;5.802;2023-04-03T02:55:32;103494.78;;;-1.07;100.00
52535;BME280;38443;53.164;5.802;2023-04-03T02:57:57;103492.88;;;-1.10;100.00
52535;BME280;38443;53.164;5.802;2023-04-03T03:00:22;103500.56;;;-1.13;100.00
52535;BME280;38443;53.164;5.802;2023-04-03T03:02:48;103502.09;;;-1.16;100.00
52535;BME280;38443;53.164;5.802;2023-04-03T03:05:13;103507.28;;;-1.18;100.00
52535;BME280;38443;53.164;5.802;2023-04-03T03:07:39;103503.53;;;-1.22;100.00
52535;BME280;38443;53.164;5.802;2023-04-03T03:10:05;103510.41;;;-1.24;100.00
52535;BME280;38443;53.164;5.802;2023-04-03T03:12:30;103517.09;;;-1.29;100.00
52535;BME280;38443;53.164;5.802;2023-04-03T03:14:55;103517.94;;;-1.30;100.00
52535;BME280;38443;53.164;5.802;2023-04-03T03:17:21;103511.78;;;-1.30;100.00
52535;BME280;38443;53.164;5.802;2023-04-03T03:19:46;103509.16;;;-1.30;100.00
52535;BME280;38443;53.164;5.802;2023-04-03T03:22:11;103508.94;;;-1.33;100.00
52535;BME280;38443;53.164;5.802;2023-04-03T03:24:36;103512.34;;;-1.34;100.00
52535;BME280;38443;53.164;5.802;2023-04-03T03:27:02;103516.72;;;-1.35;100.00
52535;BME280;38443;53.164;5.802;2023-04-03T03:29:27;103511.34;;;-1.36;100.00
52535;BME280;38443;53.164;5.802;2023-04-03T03:31:52;103515.72;;;-1.37;100.00
52535;BME280;38443;53.164;5.802;2023-04-03T03:34:18;103521.78;;;-1.38;100.00
52535;BME280;38443;53.164;5.802;2023-04-03T03:36:43;103525.22;;;-1.39;100.00
52535;BME280;38443;53.164;5.802;2023-04-03T03:39:09;103524.31;;;-1.39;100.00
52535;BME280;38443;53.164;5.802;2023-04-03T03:41:34;103526.03;;;-1.40;100.00
52535;BME280;38443;53.164;5.802;2023-04-03T03:44:00;103523.31;;;-1.42;100.00
52535;BME280;38443;53.164;5.802;2023-04-03T03:46:25;103522.41;;;-1.42;100.00
52535;BME280;38443;53.164;5.802;2023-04-03T03:48:50;103523.94;;;-1.46;100.00
52535;BME280;38443;53.164;5.802;2023-04-03T03:51:16;103524.66;;;-1.48;100.00
52535;BME280;38443;53.164;5.802;2023-04-03T03:53:41;103529.69;;;-1.51;100.00
52535;BME280;38443;53.164;5.802;2023-04-03T03:56:06;103529.59;;;-1.53;100.00
52535;BME280;38443;53.164;5.802;2023-04-03T03:58:32;103539.91;;;-1.56;100.00
52535;BME280;38443;53.164;5.802;2023-04-03T04:01:01;103536.28;;;-1.58;100.00
52535;BME280;38443;53.164;5.802;2023-04-03T04:03:27;103535.28;;;-1.60;100.00
52535;BME280;38443;53.164;5.802;2023-04-03T04:05:52;103539.53;;;-1.62;100.00
52535;BME280;38443;53.164;5.802;2023-04-03T04:08:17;103536.78;;;-1.64;100.00
52535;BME280;38443;53.164;5.802;2023-04-03T04:10:42;103536.59;;;-1.67;100.00
52535;BME280;38443;53.164;5.802;2023-04-03T04:13:08;103531.25;;;-1.68;100.00
52535;BME280;38443;53.164;5.802;2023-04-03T04:15:33;103532.94;;;-1.69;100.00
52535;BME280;38443;53.164;5.802;2023-04-03T04:17:58;103534.69;;;-1.69;100.00
52535;BME280;38443;53.164;5.802;2023-04-03T04:20:24;103531.88;;;-1.72;100.00
52535;BME280;38443;53.164;5.802;2023-04-03T04:22:49;103532.56;;;-1.75;100.00
52535;BME280;38443;53.164;5.802;2023-04-03T04:25:14;103523.66;;;-1.77;100.00
52535;BME280;38443;53.164;5.802;2023-04-03T04:27:40;103533.16;;;-1.79;100.00
52535;BME280;38443;53.164;5.802;2023-04-03T04:30:05;103532.06;;;-1.83;100.00
52535;BME280;38443;53.164;5.802;2023-04-03T04:32:31;103538.03;;;-1.85;100.00
52535;BME280;38443;53.164;5.802;2023-04-03T04:34:56;103532.59;;;-1.88;100.00
52535;BME280;38443;53.164;5.802;2023-04-03T04:37:21;103536.91;;;-1.89;100.00
52535;BME280;38443;53.164;5.802;2023-04-03T04:39:47;103537.72;;;-1.90;100.00
52535;BME280;38443;53.164;5.802;2023-04-03T04:42:12;103536.91;;;-1.89;100.00
52535;BME280;38443;53.164;5.802;2023-04-03T04:44:38;103541.25;;;-1.89;100.00
52535;BME280;38443;53.164;5.802;2023-04-03T04:47:03;103547.41;;;-1.89;100.00
52535;BME280;38443;53.164;5.802;2023-04-03T04:49:29;103552.47;;;-1.92;100.00
52535;BME280;38443;53.164;5.802;2023-04-03T04:51:54;103557.50;;;-1.95;100.00
52535;BME280;38443;53.164;5.802;2023-04-03T04:54:19;103566.19;;;-1.96;100.00
52535;BME280;38443;53.164;5.802;2023-04-03T04:56:45;103574.06;;;-1.96;100.00
52535;BME280;38443;53.164;5.802;2023-04-03T04:59:10;103573.19;;;-1.96;100.00
52535;BME280;38443;53.164;5.802;2023-04-03T05:01:36;103573.75;;;-2.01;100.00
52535;BME280;38443;53.164;5.802;2023-04-03T05:04:01;103568.44;;;-2.02;100.00
52535;BME280;38443;53.164;5.802;2023-04-03T05:06:26;103569.94;;;-2.06;100.00
52535;BME280;38443;53.164;5.802;2023-04-03T05:08:51;103571.44;;;-2.09;100.00
52535;BME280;38443;53.164;5.802;2023-04-03T05:11:17;103565.00;;;-2.14;100.00
52535;BME280;38443;53.164;5.802;2023-04-03T05:13:42;103570.84;;;-2.18;100.00
52535;BME280;38443;53.164;5.802;2023-04-03T05:16:07;103568.78;;;-2.23;100.00
52535;BME280;38443;53.164;5.802;2023-04-03T05:18:32;103573.03;;;-2.25;100.00
52535;BME280;38443;53.164;5.802;2023-04-03T05:20:58;103573.84;;;-2.26;100.00
52535;BME280;38443;53.164;5.802;2023-04-03T05:23:23;103573.13;;;-2.23;100.00
52535;BME280;38443;53.164;5.802;2023-04-03T05:25:49;103575.97;;;-2.20;100.00
52535;BME280;38443;53.164;5.802;2023-04-03T05:28:14;103583.97;;;-2.18;100.00
52535;BME280;38443;53.164;5.802;2023-04-03T05:30:39;103585.53;;;-2.21;100.00
52535;BME280;38443;53.164;5.802;2023-04-03T05:33:05;103586.56;;;-2.18;100.00
52535;BME280;38443;53.164;5.802;2023-04-03T05:35:31;103591.00;;;-2.17;100.00
52535;BME280;38443;53.164;5.802;2023-04-03T05:37:56;103589.19;;;-2.18;100.00
52535;BME280;38443;53.164;5.802;2023-04-03T05:40:21;103591.00;;;-2.17;100.00
52535;BME280;38443;53.164;5.802;2023-04-03T05:42:46;103587.59;;;-2.16;100.00
52535;BME280;38443;53.164;5.802;2023-04-03T05:45:12;103586.16;;;-2.11;100.00
52535;BME280;38443;53.164;5.802;2023-04-03T05:47:37;103589.69;;;-2.11;100.00
52535;BME280;38443;53.164;5.802;2023-04-03T05:50:02;103593.31;;;-2.09;100.00
52535;BME280;38443;53.164;5.802;2023-04-03T05:52:30;103591.81;;;-2.05;100.00
52535;BME280;38443;53.164;5.802;2023-04-03T05:54:56;103590.31;;;-2.02;100.00
52535;BME280;38443;53.164;5.802;2023-04-03T05:57:21;103595.88;;;-1.97;100.00
52535;BME280;38443;53.164;5.802;2023-04-03T05:59:48;103599.50;;;-1.95;100.00
52535;BME280;38443;53.164;5.802;2023-04-03T06:02:19;103597.09;;;-1.92;100.00
52535;BME280;38443;53.164;5.802;2023-04-03T06:04:45;103592.25;;;-1.86;100.00
52535;BME280;38443;53.164;5.802;2023-04-03T06:07:16;103598.69;;;-1.81;100.00
52535;BME280;38443;53.164;5.802;2023-04-03T06:09:43;103599.13;;;-1.74;100.00
52535;BME280;38443;53.164;5.802;2023-04-03T06:12:08;103595.19;;;-1.68;100.00
52535;BME280;38443;53.164;5.802;2023-04-03T06:14:33;103599.91;;;-1.62;100.00
52535;BME280;38443;53.164;5.802;2023-04-03T06:16:59;103605.97;;;-1.50;100.00
52535;BME280;38443;53.164;5.802;2023-04-03T06:19:24;103607.53;;;-1.38;100.00
52535;BME280;38443;53.164;5.802;2023-04-03T06:21:51;103602.69;;;-1.32;100.00
52535;BME280;38443;53.164;5.802;2023-04-03T06:24:16;103612.50;;;-1.30;100.00
52535;BME280;38443;53.164;5.802;2023-04-03T06:26:43;103619.88;;;-1.24;100.00
52535;BME280;38443;53.164;5.802;2023-04-03T06:29:08;103614.81;;;-1.21;100.00
52535;BME280;38443;53.164;5.802;2023-04-03T06:31:33;103614.47;;;-1.12;100.00
52535;BME280;38443;53.164;5.802;2023-04-03T06:33:59;103615.72;;;-0.36;100.00
52535;BME280;38443;53.164;5.802;2023-04-03T06:36:25;103610.25;;;0.67;100.00
52535;BME280;38443;53.164;5.802;2023-04-03T06:38:50;103598.81;;;1.65;100.00
52535;BME280;38443;53.164;5.802;2023-04-03T06:41:16;103598.66;;;2.32;100.00
52535;BME280;38443;53.164;5.802;2023-04-03T06:43:42;103588.50;;;2.96;100.00
52535;BME280;38443;53.164;5.802;2023-04-03T06:46:10;103590.47;;;3.39;100.00
52535;BME280;38443;53.164;5.802;2023-04-03T06:48:37;103597.78;;;4.07;100.00
52535;BME280;38443;53.164;5.802;2023-04-03T06:51:02;103592.09;;;4.18;100.00
52535;BME280;38443;53.164;5.802;2023-04-03T06:53:27;103588.72;;;4.66;100.00
52535;BME280;38443;53.164;5.802;2023-04-03T06:55:53;103591.00;;;5.02;100.00
52535;BME280;38443;53.164;5.802;2023-04-03T06:58:18;103591.06;;;5.04;100.00
52535;BME280;38443;53.164;5.802;2023-04-03T07:00:44;103589.03;;;5.45;100.00
52535;BME280;38443;53.164;5.802;2023-04-03T07:03:09;103595.59;;;5.30;100.00
52535;BME280;38443;53.164;5.802;2023-04-03T07:05:35;103603.69;;;5.59;100.00
52535;BME280;38443;53.164;5.802;2023-04-03T07:08:00;103597.34;;;5.54;100.00
52535;BME280;38443;53.164;5.802;2023-04-03T07:10:25;103604.91;;;5.93;100.00
52535;BME280;38443;53.164;5.802;2023-04-03T07:12:51;103597.78;;;5.92;100.00
52535;BME280;38443;53.164;5.802;2023-04-03T07:15:16;103600.50;;;6.19;100.00
52535;BME280;38443;53.164;5.802;2023-04-03T07:17:41;103611.72;;;6.10;100.00
52535;BME280;38443;53.164;5.802;2023-04-03T07:20:07;103612.44;;;6.59;100.00
52535;BME280;38443;53.164;5.802;2023-04-03T07:22:33;103620.63;;;6.38;100.00
52535;BME280;38443;53.164;5.802;2023-04-03T07:24:58;103612.13;;;6.77;100.00
52535;BME280;38443;53.164;5.802;2023-04-03T07:27:24;103635.81;;;6.69;100.00
52535;BME280;38443;53.164;5.802;2023-04-03T07:29:50;103628.66;;;6.95;100.00
52535;BME280;38443;53.164;5.802;2023-04-03T07:32:15;103631.81;;;6.82;100.00
52535;BME280;38443;53.164;5.802;2023-04-03T07:34:41;103641.00;;;6.93;100.00
52535;BME280;38443;53.164;5.802;2023-04-03T07:37:06;103629.22;;;6.85;100.00
52535;BME280;38443;53.164;5.802;2023-04-03T07:39:32;103634.09;;;6.98;100.00
52535;BME280;38443;53.164;5.802;2023-04-03T07:41:57;103635.59;;;6.90;100.00
52535;BME280;38443;53.164;5.802;2023-04-03T07:44:23;103641.06;;;7.24;100.00
52535;BME280;38443;53.164;5.802;2023-04-03T07:46:49;103636.59;;;7.23;100.00
52535;BME280;38443;53.164;5.802;2023-04-03T07:49:15;103637.16;;;7.43;100.00
52535;BME280;38443;53.164;5.802;2023-04-03T07:51:43;103638.22;;;7.48;100.00
52535;BME280;38443;53.164;5.802;2023-04-03T07:54:08;103642.19;;;7.32;99.77
52535;BME280;38443;53.164;5.802;2023-04-03T07:56:33;103636.66;;;7.88;100.00
52535;BME280;38443;53.164;5.802;2023-04-03T07:58:59;103636.78;;;7.92;92.20
52535;BME280;38443;53.164;5.802;2023-04-03T08:01:24;103630.13;;;8.10;100.00
52535;BME280;38443;53.164;5.802;2023-04-03T08:03:50;103626.53;;;8.09;88.48
52535;BME280;38443;53.164;5.802;2023-04-03T08:06:15;103621.16;;;8.41;100.00
52535;BME280;38443;53.164;5.802;2023-04-03T08:08:41;103623.88;;;8.09;79.11
52535;BME280;38443;53.164;5.802;2023-04-03T08:11:06;103626.00;;;8.23;100.00
52535;BME280;38443;53.164;5.802;2023-04-03T08:13:33;103627.47;;;8.10;100.00
52535;BME280;38443;53.164;5.802;2023-04-03T08:16:10;103620.81;;;7.94;94.83
52535;BME280;38443;53.164;5.802;2023-04-03T08:18:35;103616.97;;;8.17;100.00
52535;BME280;38443;53.164;5.802;2023-04-03T08:21:00;103622.94;;;8.07;78.51
52535;BME280;38443;53.164;5.802;2023-04-03T08:23:26;103629.34;;;7.81;100.00
52535;BME280;38443;53.164;5.802;2023-04-03T08:25:51;103621.41;;;7.84;81.63
52535;BME280;38443;53.164;5.802;2023-04-03T08:28:16;103614.97;;;8.09;100.00
52535;BME280;38443;53.164;5.802;2023-04-03T08:30:42;103611.56;;;8.14;86.21
52535;BME280;38443;53.164;5.802;2023-04-03T08:33:08;103615.00;;;8.45;100.00
52535;BME280;38443;53.164;5.802;2023-04-03T08:35:39;103614.13;;;8.11;91.66
52535;BME280;38443;53.164;5.802;2023-04-03T08:38:05;103622.34;;;8.19;100.00
52535;BME280;38443;53.164;5.802;2023-04-03T08:40:31;103615.28;;;8.21;80.46
52535;BME280;38443;53.164;5.802;2023-04-03T08:45:25;103615.38;;;7.91;69.00
52535;BME280;38443;53.164;5.802;2023-04-03T08:47:59;103617.47;;;8.03;90.50
52535;BME280;38443;53.164;5.802;2023-04-03T08:50:43;103624.66;;;8.05;85.76
52535;BME280;38443;53.164;5.802;2023-04-03T08:53:15;103621.78;;;7.97;80.30
52535;BME280;38443;53.164;5.802;2023-04-03T08:55:44;103622.88;;;8.04;85.13
52535;BME280;38443;53.164;5.802;2023-04-03T08:58:20;103621.72;;;7.94;76.59
52535;BME280;38443;53.164;5.802;2023-04-03T09:01:03;103623.28;;;7.86;76.82
52535;BME280;38443;53.164;5.802;2023-04-03T09:03:31;103618.34;;;7.68;83.74
52535;BME280;38443;53.164;5.802;2023-04-03T09:08:41;103617.34;;;7.65;76.38
52535;BME280;38443;53.164;5.802;2023-04-03T09:11:26;103615.19;;;7.51;70.55
52535;BME280;38443;53.164;5.802;2023-04-03T09:14:07;103612.13;;;7.37;73.04
52535;BME280;38443;53.164;5.802;2023-04-03T09:16:49;103609.28;;;7.31;75.93
52535;BME280;38443;53.164;5.802;2023-04-03T09:21:50;103610.00;;;6.94;79.80
52535;BME280;38443;53.164;5.802;2023-04-03T09:24:15;103615.91;;;6.56;68.90
52535;BME280;38443;53.164;5.802;2023-04-03T09:26:47;103616.66;;;6.52;88.97
52535;BME280;38443;53.164;5.802;2023-04-03T09:29:20;103623.25;;;6.36;81.63
52535;BME280;38443;53.164;5.802;2023-04-03T09:31:49;103629.94;;;6.25;76.05
52535;BME280;38443;53.164;5.802;2023-04-03T09:34:17;103614.59;;;6.16;77.64
52535;BME280;38443;53.164;5.802;2023-04-03T09:36:52;103619.28;;;6.24;76.15
52535;BME280;38443;53.164;5.802;2023-04-03T09:39:26;103620.13;;;6.23;75.73
52535;BME280;38443;53.164;5.802;2023-04-03T09:42:22;103617.38;;;6.19;76.04
52535;BME280;38443;53.164;5.802;2023-04-03T09:44:56;103620.19;;;6.24;74.42
52535;BME280;38443;53.164;5.802;2023-04-03T09:47:29;103618.69;;;6.32;73.67
52535;BME280;38443;53.164;5.802;2023-04-03T09:52:47;103615.53;;;6.44;71.21
52535;BME280;38443;53.164;5.802;2023-04-03T09:55:26;103614.31;;;6.34;61.23
52535;BME280;38443;53.164;5.802;2023-04-03T09:57:59;103614.56;;;6.42;67.08
52535;BME280;38443;53.164;5.802;2023-04-03T10:00:28;103613.06;;;6.50;67.03
52535;BME280;38443;53.164;5.802;2023-04-03T10:02:57;103597.41;;;6.59;68.72
52535;BME280;38443;53.164;5.802;2023-04-03T10:10:45;103597.97;;;6.78;66.24
52535;BME280;38443;53.164;5.802;2023-04-03T10:13:16;103596.38;;;6.85;65.83
52535;BME280;38443;53.164;5.802;2023-04-03T10:16:07;103594.63;;;6.85;61.38
52535;BME280;38443;53.164;5.802;2023-04-03T10:18:37;103596.69;;;6.95;65.86
52535;BME280;38443;53.164;5.802;2023-04-03T10:24:01;103580.59;;;6.91;60.17
52535;BME280;38443;53.164;5.802;2023-04-03T10:26:39;103579.00;;;6.97;59.50
52535;BME280;38443;53.164;5.802;2023-04-03T10:29:18;103581.78;;;7.01;61.22
52535;BME280;38443;53.164;5.802;2023-04-03T10:32:15;103585.34;;;7.01;58.76
52535;BME280;38443;53.164;5.802;2023-04-03T10:34:46;103585.38;;;7.03;59.62
52535;BME280;38443;53.164;5.802;2023-04-03T10:37:23;103577.69;;;7.12;60.45
52535;BME280;38443;53.164;5.802;2023-04-03T10:40:20;103579.16;;;7.32;59.05
52535;BME280;38443;53.164;5.802;2023-04-03T10:42:56;103579.22;;;7.35;56.11
52535;BME280;38443;53.164;5.802;2023-04-03T10:45:28;103583.81;;;7.41;59.26
52535;BME280;38443;53.164;5.802;2023-04-03T10:48:15;103578.38;;;7.36;53.57
52535;BME280;38443;53.164;5.802;2023-04-03T10:54:25;103569.44;;;7.34;54.57
52535;BME280;38443;53.164;5.802;2023-04-03T10:56:38;103559.28;;;7.21;50.24
52535;BME280;38443;53.164;5.802;2023-04-03T11:02:07;103563.22;;;7.34;54.13
52535;BME280;38443;53.164;5.802;2023-04-03T11:04:39;103560.44;;;7.31;52.62
52535;BME280;38443;53.164;5.802;2023-04-03T11:07:15;103565.09;;;7.38;52.67
52535;BME280;38443;53.164;5.802;2023-04-03T11:09:44;103551.94;;;7.44;52.79
52535;BME280;38443;53.164;5.802;2023-04-03T11:14:40;103549.31;;;7.46;52.49
52535;BME280;38443;53.164;5.802;2023-04-03T11:17:15;103546.06;;;7.57;54.48
52535;BME280;38443;53.164;5.802;2023-04-03T11:20:03;103548.88;;;7.62;51.48
52535;BME280;38443;53.164;5.802;2023-04-03T11:22:34;103535.22;;;7.50;51.66
52535;BME280;38443;53.164;5.802;2023-04-03T11:27:40;103539.69;;;7.51;51.89
52535;BME280;38443;53.164;5.802;2023-04-03T11:30:14;103530.06;;;7.56;52.40
52535;BME280;38443;53.164;5.802;2023-04-03T11:32:48;103524.88;;;7.62;53.73
52535;BME280;38443;53.164;5.802;2023-04-03T11:35:17;103508.16;;;7.69;53.24
52535;BME280;38443;53.164;5.802;2023-04-03T11:37:47;103515.22;;;7.67;52.22
52535;BME280;38443;53.164;5.802;2023-04-03T11:42:46;103513.19;;;7.57;52.97
52535;BME280;38443;53.164;5.802;2023-04-03T11:47:50;103509.63;;;7.56;50.91
52535;BME280;38443;53.164;5.802;2023-04-03T12:00:56;103502.78;;;7.66;51.96
52535;BME280;38443;53.164;5.802;2023-04-03T12:05:47;103504.34;;;7.59;48.97
52535;BME280;38443;53.164;5.802;2023-04-03T12:13:33;103492.69;;;7.54;47.77
52535;BME280;38443;53.164;5.802;2023-04-03T12:15:58;103504.78;;;7.42;45.82
52535;BME280;38443;53.164;5.802;2023-04-03T12:21:02;103506.38;;;7.35;48.45
52535;BME280;38443;53.164;5.802;2023-04-03T12:23:32;103496.38;;;7.26;45.71
52535;BME280;38443;53.164;5.802;2023-04-03T12:26:28;103494.88;;;7.36;46.40
52535;BME280;38443;53.164;5.802;2023-04-03T12:28:55;103496.78;;;7.42;50.40
52535;BME280;38443;53.164;5.802;2023-04-03T12:31:22;103488.06;;;7.47;49.85
52535;BME280;38443;53.164;5.802;2023-04-03T12:37:03;103489.72;;;7.42;47.08
52535;BME280;38443;53.164;5.802;2023-04-03T12:39:52;103489.63;;;7.39;49.48
52535;BME280;38443;53.164;5.802;2023-04-03T12:42:45;103483.44;;;7.40;50.27
52535;BME280;38443;53.164;5.802;2023-04-03T12:45:22;103475.31;;;7.35;50.27
52535;BME280;38443;53.164;5.802;2023-04-03T12:47:51;103479.84;;;7.39;51.82
52535;BME280;38443;53.164;5.802;2023-04-03T12:50:31;103486.31;;;7.48;54.02
52535;BME280;38443;53.164;5.802;2023-04-03T12:53:11;103479.16;;;7.47;53.75
52535;BME280;38443;53.164;5.802;2023-04-03T12:55:37;103469.44;;;7.49;55.82
52535;BME280;38443;53.164;5.802;2023-04-03T12:58:16;103462.50;;;7.54;52.92
52535;BME280;38443;53.164;5.802;2023-04-03T13:00:42;103453.56;;;7.53;52.95
52535;BME280;38443;53.164;5.802;2023-04-03T13:03:18;103463.19;;;7.47;53.42
52535;BME280;38443;53.164;5.802;2023-04-03T13:06:01;103454.09;;;7.38;51.47
52535;BME280;38443;53.164;5.802;2023-04-03T13:08:29;103451.31;;;7.35;52.10
52535;BME280;38443;53.164;5.802;2023-04-03T13:21:22;103434.41;;;7.33;54.06
52535;BME280;38443;53.164;5.802;2023-04-03T13:23:54;103438.09;;;7.38;54.23
52535;BME280;38443;53.164;5.802;2023-04-03T13:26:42;103425.63;;;7.37;53.05
52535;BME280;38443;53.164;5.802;2023-04-03T13:29:27;103437.25;;;7.41;54.56
52535;BME280;38443;53.164;5.802;2023-04-03T13:31:55;103438.16;;;7.42;55.08
52535;BME280;38443;53.164;5.802;2023-04-03T13:34:22;103437.94;;;7.32;53.95
52535;BME280;38443;53.164;5.802;2023-04-03T13:36:58;103420.81;;;7.23;52.24
52535;BME280;38443;53.164;5.802;2023-04-03T13:39:29;103429.06;;;7.33;55.46
52535;BME280;38443;53.164;5.802;2023-04-03T13:42:01;103433.56;;;7.34;54.82
52535;BME280;38443;53.164;5.802;2023-04-03T13:44:35;103434.56;;;7.39;55.57
52535;BME280;38443;53.164;5.802;2023-04-03T13:49:38;103430.16;;;7.42;55.40
52535;BME280;38443;53.164;5.802;2023-04-03T13:52:24;103417.78;;;7.42;55.29
52535;BME280;38443;53.164;5.802;2023-04-03T13:54:54;103413.47;;;7.49;55.97
52535;BME280;38443;53.164;5.802;2023-04-03T13:57:20;103416.09;;;7.46;55.55
52535;BME280;38443;53.164;5.802;2023-04-03T13:59:45;103418.66;;;7.43;55.00
52535;BME280;38443;53.164;5.802;2023-04-03T14:02:18;103423.31;;;7.51;56.55
52535;BME280;38443;53.164;5.802;2023-04-03T14:07:10;103410.91;;;7.53;55.50
52535;BME280;38443;53.164;5.802;2023-04-03T14:09:36;103406.38;;;7.48;56.44
52535;BME280;38443;53.164;5.802;2023-04-03T14:12:05;103406.97;;;7.36;53.02
52535;BME280;38443;53.164;5.802;2023-04-03T14:14:35;103414.69;;;7.27;55.18